METAR* REPORTS - Stations within 60 miles

(*Meteorological Terminal Aviation Routine weather report)

 

KRDG - Reading, Pennsylvania, USA
Distance from station: SE 19mi, 31km
Updated: Thu, 02-Apr-2020 10:54pm EDT
Clear
Clear
 Wind from NW
Wind: NW 15 mph , 24 km/h
Temperature: 50°F , 10°C
Wind Chill: 45°F , 7°C
Dew Point: 27°F , -3°C
Humidity: 40%
Barometer: 29.76 inHg , 1007.8 hPa
Clouds: Clear
Visibility: 10 miles , 16 km
2020/04/03 02:54 KRDG 030254Z 31013KT 10SM CLR 10/M03 A2976 RMK AO2 SLP083 T01001033 58001
KLNS - Lancaster, Pennsylvania, USA
Distance from station: S 33mi, 53km
Updated: Thu, 02-Apr-2020 10:53pm EDT
Clear
Clear
 Wind from NW
Wind: NW 8 mph , 13 km/h
Temperature: 48°F , 9°C
Wind Chill: 44°F , 7°C
Dew Point: 25°F , -4°C
Humidity: 40%
Barometer: 29.79 inHg , 1008.8 hPa
Clouds: Clear
Visibility: 10 miles , 16 km
2020/04/03 02:53 KLNS 030253Z 31007KT 10SM CLR 09/M04 A2979 RMK AO2 SLP087 T00891039 50003
 
KSEG - Selinsgrove, Pennsylvania, USA
Distance from station: WNW 39mi, 62km
Updated: Thu, 02-Apr-2020 10:53pm EDT
Clear
Clear
 Wind from varies
Wind: varies 7 mph , 11 km/h, Gust: 17 mph , 28 km/h
Temperature: 50°F , 10°C
Wind Chill: 47°F , 8°C
Dew Point: 25°F , -4°C
Humidity: 37%
Barometer: 29.83 inHg , 1010.2 hPa
Clouds: Clear
Visibility: 10 miles , 16 km
2020/04/03 02:53 KSEG 030253Z AUTO VRB06G15KT 10SM CLR 10/M04 A2983 RMK AO2 SLP102 T01001044 50000
KABE - Allentown, Pennsylvania, USA
Distance from station: E 39mi, 63km
Updated: Thu, 02-Apr-2020 10:51pm EDT
Clear
Clear
 Wind from NW
Wind: NW 12 mph , 19 km/h, Gust: 22 mph , 35 km/h
Temperature: 52°F , 11°C
Dew Point: 27°F , -3°C
Humidity: 38%
Barometer: 29.73 inHg , 1006.8 hPa
Clouds: Clear
Visibility: 10 miles , 16 km
2020/04/03 02:51 KABE 030251Z 32010G19KT 10SM CLR 11/M03 A2973 RMK AO2 SLP069 T01061033 58007
 
KMDT - Middletown, Pennsylvania, USA
Distance from station: SW 40mi, 65km
Updated: Thu, 02-Apr-2020 10:56pm EDT
Clear
Clear
 Wind from NNW
Wind: NNW 16 mph , 26 km/h
Temperature: 52°F , 11°C
Dew Point: 21°F , -6°C
Humidity: 30%
Barometer: 29.80 inHg , 1009.1 hPa
Clouds: Clear
Visibility: 10 miles , 16 km
2020/04/03 02:56 KMDT 030256Z 33014KT 10SM CLR 11/M06 A2980 RMK AO2 PK WND 32027/0204 SLP091 T01111056 50005
KPTW - Pottstown, Pennsylvania, USA
Distance from station: SE 42mi, 67km
Updated: Thu, 02-Apr-2020 10:54pm EDT
Clear
Clear
 Wind from NW
Wind: NW 12 mph , 19 km/h, Gust: 22 mph , 35 km/h
Temperature: 46°F , 8°C
Wind Chill: 40°F , 4°C
Dew Point: 27°F , -3°C
Humidity: 46%
Barometer: 29.76 inHg , 1007.8 hPa
Clouds: Clear
Visibility: 10 miles , 16 km
2020/04/03 02:54 KPTW 030254Z AUTO 31010G19KT 10SM CLR 08/M03 A2976 RMK AO2 SLP074 T00831028 50003
 
KCXY - Harrisburg, Pennsylvania, USA
Distance from station: SW 43mi, 69km
Updated: Thu, 02-Apr-2020 10:56pm EDT
Clear
Clear
 Wind from NW
Wind: NW 14 mph , 22 km/h, Gust: 24 mph , 39 km/h
Temperature: 54°F , 12°C
Dew Point: 21°F , -6°C
Humidity: 28%
Barometer: 29.81 inHg , 1009.5 hPa
Clouds: Clear
Visibility: 10 miles , 16 km
2020/04/03 02:56 KCXY 030256Z AUTO 31012G21KT 10SM CLR 12/M06 A2981 RMK AO2 PK WND 31026/0200 SLP095 T01221056 50005
KUKT - Quakertown Arp, Pennsylvania, USA
Distance from station: ESE 44mi, 70km
Updated: Thu, 02-Apr-2020 11:15pm EDT
Clear
Clear
 Wind from WNW
Wind: WNW 10 mph , 17 km/h, Gust: 17 mph , 28 km/h
Temperature: 48°F , 9°C
Wind Chill: 44°F , 7°C
Dew Point: 27°F , -3°C
Humidity: 43%
Barometer: 29.73 inHg , 1006.8 hPa
Clouds: Clear
Visibility: 10 miles , 16 km
2020/04/03 03:15 KUKT 030315Z AUTO 29009G15KT 250V320 10SM CLR 09/M03 A2973 RMK A01
 
KMQS - Coatesville, Pennsylvania, USA
Distance from station: SSE 45mi, 72km
Updated: Thu, 02-Apr-2020 10:55pm EDT
Clear
Clear
 Wind from NW
Wind: NW 13 mph , 20 km/h
Temperature: 48°F , 9°C
Wind Chill: 43°F , 6°C
Dew Point: 27°F , -3°C
Humidity: 43%
Barometer: 29.77 inHg , 1008.1 hPa
Clouds: Clear
Visibility: 10 miles , 16 km
2020/04/03 02:55 KMQS 030255Z AUTO 31011KT 10SM CLR 09/M03 A2977 RMK AO2
KMPO - Mt. Pocono, Pennsylvania, USA
Distance from station: NE 57mi, 92km
Updated: Thu, 02-Apr-2020 10:53pm EDT
Clear
Clear
 Wind from NW
Wind: NW 20 mph , 31 km/h, Gust: 36 mph , 57 km/h
Temperature: 41°F , 5°C
Wind Chill: 32°F , 0°C
Dew Point: 25°F , -4°C
Humidity: 53%
Barometer: 29.67 inHg , 1004.7 hPa
Clouds: Clear
Visibility: 10 miles , 16 km
2020/04/03 02:53 KMPO 030253Z AUTO 31017G31KT 10SM CLR 05/M04 A2967 RMK AO2 PK WND 29032/0219 SLP060 T00501044 58010
 
KAVP - Avoca/Wilkes B., Pennsylvania, USA
Distance from station: NNE 58mi, 93km
Updated: Thu, 02-Apr-2020 10:54pm EDT
Clear
Clear
 Wind from NNW
Wind: NNW 10 mph , 17 km/h, Gust: 17 mph , 28 km/h
Temperature: 46°F , 8°C
Wind Chill: 41°F , 5°C
Dew Point: 27°F , -3°C
Humidity: 46%
Barometer: 29.76 inHg , 1007.8 hPa
Clouds: Clear
Visibility: 10 miles , 16 km
2020/04/03 02:54 KAVP 030254Z 34009G15KT 10SM CLR 08/M03 A2976 RMK AO2 SLP078 T00831033 58012
KTHV - York, Pennsylvania, USA
Distance from station: SW 59mi, 94km
Updated: Thu, 02-Apr-2020 10:53pm EDT
Clear
Clear
 Wind from WNW
Wind: WNW 8 mph , 13 km/h
Temperature: 48°F , 9°C
Wind Chill: 44°F , 7°C
Dew Point: 23°F , -5°C
Humidity: 37%
Barometer: 29.81 inHg , 1009.5 hPa
Clouds: Clear
Visibility: 10 miles , 16 km
2020/04/03 02:53 KTHV 030253Z AUTO 30007KT 10SM CLR 09/M05 A2981 RMK AO2 SLP099 T00941050 50008
 
KDYL - Doylestown, Pennsylvania, USA
Distance from station: ESE 59mi, 95km
Updated: Thu, 02-Apr-2020 10:54pm EDT
Clear
Clear
 Wind from NNW
Wind: NNW 15 mph , 24 km/h, Gust: 28 mph , 44 km/h
Temperature: 50°F , 10°C
Wind Chill: 45°F , 7°C
Dew Point: 27°F , -3°C
Humidity: 40%
Barometer: 29.71 inHg , 1006.1 hPa
Clouds: Clear
Visibility: 10 miles , 16 km
2020/04/03 02:54 KDYL 030254Z AUTO 33013G24KT 10SM CLR 10/M03 A2971 RMK AO2 PK WND 35029/0200 SLP062 T01001033 50001
KIPT - Williamsport, Pennsylvania, USA
Distance from station: NW 60mi, 96km
Updated: Thu, 02-Apr-2020 10:54pm EDT
Clear
Clear
 Wind from WNW
Wind: WNW 13 mph , 20 km/h
Temperature: 48°F , 9°C
Wind Chill: 43°F , 6°C
Dew Point: 25°F , -4°C
Humidity: 40%
Barometer: 29.82 inHg , 1009.8 hPa
Clouds: Clear
Visibility: 10 miles , 16 km
2020/04/03 02:54 KIPT 030254Z AUTO 29011KT 10SM CLR 09/M04 A2982 RMK AO2 SLP098 T00891044 58004